Time;durP1;ratioP1;P1;durP2;ratioP2;P2;SDS_P1;SDS_P2;PMS_P1;PMS_P2;Temp;Humidity;BMP_temperature;BMP_pressure;BME280_temperature;BME280_humidity;BME280_pressure;Samples;Min_cycle;Max_cycle;Signal;HPM_P1;HPM_P2
2021/09/08 00:01:32;;;;;;;1999.90;999.90;;;;;;;14.05;45.30;101817.97;5097915;27;97508;-76
2021/09/08 00:04:01;;;;;;;1999.90;999.90;;;;;;;14.03;45.34;101822.38;5096623;27;97301;-76
2021/09/08 00:06:29;;;;;;;1999.90;999.90;;;;;;;14.00;45.55;101823.22;5084615;27;98034;-77
2021/09/08 00:08:57;;;;;;;1999.90;999.90;;;;;;;13.98;45.25;101814.25;5078983;27;100564;-76
2021/09/08 00:11:25;;;;;;;1999.90;999.90;;;;;;;13.95;45.31;101815.94;5075079;27;97733;-77
2021/09/08 00:13:52;;;;;;;1999.90;999.90;;;;;;;13.92;45.42;101814.09;5076651;27;98157;-77
2021/09/08 00:16:20;;;;;;;1999.90;999.90;;;;;;;13.91;45.48;101814.97;5074242;27;100615;-77
2021/09/08 00:18:48;;;;;;;1999.90;999.90;;;;;;;13.89;45.60;101808.69;5075657;27;99493;-77
2021/09/08 00:21:17;;;;;;;1999.90;999.90;;;;;;;13.87;45.39;101810.41;5076744;27;97168;-76
2021/09/08 00:23:45;;;;;;;1999.90;999.90;;;;;;;13.85;45.57;101806.78;5071626;27;97315;-77
2021/09/08 00:26:13;;;;;;;1999.90;999.90;;;;;;;13.85;45.73;101812.16;5090987;27;97781;-76
2021/09/08 00:28:41;;;;;;;1999.90;999.90;;;;;;;13.83;45.79;101818.31;5086090;27;97709;-77
2021/09/08 00:31:08;;;;;;;1999.90;999.90;;;;;;;13.82;45.90;101813.84;5085382;27;97474;-79
2021/09/08 00:33:37;;;;;;;1999.90;999.90;;;;;;;13.78;45.88;101809.25;5065318;27;97126;-76
2021/09/08 00:36:05;;;;;;;1999.90;999.90;;;;;;;13.80;45.80;101812.91;5066544;27;99795;-76
2021/09/08 00:38:35;;;;;;;1999.90;999.90;;;;;;;13.76;45.85;101805.63;5087456;27;98808;-76
2021/09/08 00:41:02;;;;;;;1999.90;999.90;;;;;;;13.74;45.97;101812.69;5067537;27;97967;-76
2021/09/08 00:43:31;;;;;;;1999.90;999.90;;;;;;;13.73;46.02;101817.13;5072379;27;97301;-77
2021/09/08 00:45:59;;;;;;;1999.90;999.90;;;;;;;13.72;46.09;101811.75;5059330;27;98817;-77
2021/09/08 00:48:28;;;;;;;1999.90;999.90;;;;;;;13.68;46.09;101810.78;5072809;27;97605;-77
2021/09/08 00:50:56;;;;;;;1999.90;999.90;;;;;;;13.66;46.49;101809.84;5071118;27;96940;-74
2021/09/08 00:53:26;;;;;;;1999.90;999.90;;;;;;;13.64;46.30;101805.34;5089790;27;97143;-75
2021/09/08 00:55:56;;;;;;;1999.90;999.90;;;;;;;13.62;46.37;101805.25;5071278;27;100119;-76
2021/09/08 00:58:27;;;;;;;1999.90;999.90;;;;;;;13.59;46.43;101801.63;5090960;27;98108;-77
2021/09/08 01:00:57;;;;;;;1999.90;999.90;;;;;;;13.58;46.41;101803.41;5069853;27;97287;-76
2021/09/08 01:03:26;;;;;;;1999.90;999.90;;;;;;;13.56;46.39;101805.13;5069113;27;97280;-77
2021/09/08 01:05:54;;;;;;;1999.90;999.90;;;;;;;13.56;46.47;101802.47;5055791;27;100956;-76
2021/09/08 01:08:24;;;;;;;1999.90;999.90;;;;;;;13.53;46.55;101802.38;5076776;27;97485;-76
2021/09/08 01:10:53;;;;;;;1999.90;999.90;;;;;;;13.51;46.30;101800.53;5058801;27;98015;-76
2021/09/08 01:13:23;;;;;;;1999.90;999.90;;;;;;;13.49;46.54;101804.94;5093349;27;97824;-77
2021/09/08 01:15:56;;;;;;;1999.90;999.90;;;;;;;13.47;46.72;101798.66;5060428;27;100535;-76
2021/09/08 01:18:24;;;;;;;1999.90;999.90;;;;;;;13.42;46.51;101798.53;5075797;27;100944;-79
2021/09/08 01:20:52;;;;;;;1999.90;999.90;;;;;;;13.40;46.79;101796.69;5072530;27;98524;-76
2021/09/08 01:23:21;;;;;;;1999.90;999.90;;;;;;;13.35;46.82;101796.56;5075459;27;98468;-78
2021/09/08 01:25:49;;;;;;;1999.90;999.90;;;;;;;13.34;46.96;101800.09;5079226;27;99308;-77
2021/09/08 01:28:17;;;;;;;1999.90;999.90;;;;;;;13.31;47.11;101797.38;5061556;27;99686;-76
2021/09/08 01:30:45;;;;;;;1999.90;999.90;;;;;;;13.30;47.06;101795.53;5071202;27;97315;-77
2021/09/08 01:33:14;;;;;;;1999.90;999.90;;;;;;;13.30;46.86;101797.28;5055367;27;97599;-76
2021/09/08 01:35:42;;;;;;;1999.90;999.90;;;;;;;13.27;47.01;101798.16;5074949;27;100171;-77
2021/09/08 01:38:09;;;;;;;1999.90;999.90;;;;;;;13.24;47.14;101794.50;5056224;27;99347;-77
2021/09/08 01:40:39;;;;;;;1999.90;999.90;;;;;;;13.21;47.25;101792.63;5072198;27;97223;-77
2021/09/08 01:43:06;;;;;;;1999.90;999.90;;;;;;;13.19;47.46;101794.34;5097732;27;97316;-76
2021/09/08 01:45:34;;;;;;;1999.90;999.90;;;;;;;13.16;47.17;101788.94;5096815;27;97632;-76
2021/09/08 01:48:03;;;;;;;1999.90;999.90;;;;;;;13.15;47.28;101793.38;5071360;27;99074;-77
2021/09/08 01:50:30;;;;;;;1999.90;999.90;;;;;;;13.14;47.38;101790.66;5073082;27;97878;-77
2021/09/08 01:52:58;;;;;;;1999.90;999.90;;;;;;;13.13;47.23;101789.75;5069606;27;96872;-75
2021/09/08 01:55:26;;;;;;;1999.90;999.90;;;;;;;13.11;47.50;101787.91;5073922;27;100624;-77
2021/09/08 01:57:55;;;;;;;1999.90;999.90;;;;;;;13.08;47.43;101787.81;5074474;27;100206;-76
2021/09/08 02:00:23;;;;;;;1999.90;999.90;;;;;;;13.09;47.40;101787.84;5053225;27;96899;-77
2021/09/08 02:02:51;;;;;;;1999.90;999.90;;;;;;;13.07;47.45;101786.00;5087157;27;97877;-75
2021/09/08 02:05:19;;;;;;;1999.90;999.90;;;;;;;13.05;47.54;101785.06;5071818;27;97489;-77
2021/09/08 02:07:47;;;;;;;1999.90;999.90;;;;;;;13.03;47.35;101786.78;5094375;27;97520;-76
2021/09/08 02:10:15;;;;;;;1999.90;999.90;;;;;;;13.01;47.43;101783.16;5072695;27;97138;-75
2021/09/08 02:12:43;;;;;;;1999.90;999.90;;;;;;;12.98;47.55;101788.41;5075260;27;97261;-77
2021/09/08 02:15:13;;;;;;;1999.90;999.90;;;;;;;12.96;47.54;101784.78;5094087;27;97707;-76
2021/09/08 02:17:41;;;;;;;1999.90;999.90;;;;;;;;;;5092270;27;96783;-76
2021/09/08 02:20:10;;;;;;;1999.90;999.90;;;;;;;12.90;47.58;101784.59;5088832;27;97334;-78
2021/09/08 02:22:38;;;;;;;1999.90;999.90;;;;;;;12.87;47.63;101784.53;5073819;27;97872;-76
2021/09/08 02:25:06;;;;;;;1999.90;999.90;;;;;;;12.85;47.75;101783.59;5071261;27;101269;-76
2021/09/08 02:27:35;;;;;;;1999.90;999.90;;;;;;;12.82;47.66;101783.50;5093445;27;98101;-78
2021/09/08 02:30:04;;;;;;;1999.90;999.90;;;;;;;12.80;47.63;101782.56;5066897;27;98117;-77
2021/09/08 02:32:33;;;;;;;1999.90;999.90;;;;;;;12.77;47.80;101780.69;5087699;27;96994;-76
2021/09/08 02:35:01;;;;;;;1999.90;999.90;;;;;;;12.74;47.90;101777.03;5051591;27;99410;-78
2021/09/08 02:37:28;;;;;;;1999.90;999.90;;;;;;;12.71;47.89;101768.94;5053932;27;97778;-77
2021/09/08 02:39:56;;;;;;;1999.90;999.90;;;;;;;12.70;47.85;101769.78;5090731;27;98059;-77
2021/09/08 02:42:24;;;;;;;1999.90;999.90;;;;;;;12.67;47.93;101770.63;5055505;27;99097;-76
2021/09/08 02:44:52;;;;;;;1999.90;999.90;;;;;;;12.66;48.02;101770.56;5068289;27;100906;-78
2021/09/08 02:47:19;;;;;;;1999.90;999.90;;;;;;;12.65;47.89;101760.75;5050830;27;100808;-77
2021/09/08 02:49:48;;;;;;;1999.90;999.90;;;;;;;12.64;47.97;101761.59;5088257;27;97374;-76
2021/09/08 02:52:16;;;;;;;1999.90;999.90;;;;;;;12.61;48.06;101764.19;5075254;27;97174;-75
2021/09/08 02:54:44;;;;;;;1999.90;999.90;;;;;;;12.62;48.06;101764.22;5090658;27;98900;-75
2021/09/08 02:57:12;;;;;;;1999.90;999.90;;;;;;;12.59;47.94;101763.25;5095867;27;98590;-77
2021/09/08 02:59:39;;;;;;;1999.90;999.90;;;;;;;12.58;48.01;101757.03;5088224;27;98572;-78
2021/09/08 03:02:07;;;;;;;1999.90;999.90;;;;;;;12.57;47.87;101770.31;5072760;27;97456;-76
2021/09/08 03:04:35;;;;;;;1999.90;999.90;;;;;;;12.56;47.93;101766.75;5091550;27;98341;-76
2021/09/08 03:07:04;;;;;;;1999.90;999.90;;;;;;;12.53;47.96;101755.09;5081942;27;97559;-77
2021/09/08 03:09:32;;;;;;;1999.90;999.90;;;;;;;12.52;48.15;101761.25;5080563;27;97089;-76
2021/09/08 03:12:00;;;;;;;1999.90;999.90;;;;;;;12.49;48.04;101756.72;5092137;27;97870;-77
2021/09/08 03:14:28;;;;;;;1999.90;999.90;;;;;;;12.47;48.08;101758.47;5051736;27;99342;-76
2021/09/08 03:16:56;;;;;;;1999.90;999.90;;;;;;;12.46;48.22;101753.06;5066505;27;98699;-77
2021/09/08 03:19:24;;;;;;;1999.90;999.90;;;;;;;12.45;48.04;101753.94;5069540;27;97895;-77
2021/09/08 03:21:51;;;;;;;1999.90;999.90;;;;;;;12.42;48.16;101754.75;5073111;27;97671;-76
2021/09/08 03:24:20;;;;;;;1999.90;999.90;;;;;;;12.40;48.36;101753.78;5056263;27;99705;-76
2021/09/08 03:26:48;;;;;;;1999.90;999.90;;;;;;;12.38;48.28;101759.97;5091306;27;98130;-77
2021/09/08 03:29:16;;;;;;;1999.90;999.90;;;;;;;12.35;48.35;101754.53;5072059;27;97063;-78
2021/09/08 03:31:44;;;;;;;1999.90;999.90;;;;;;;12.31;48.28;101745.53;5077076;27;97382;-76
2021/09/08 03:34:11;;;;;;;1999.90;999.90;;;;;;;12.28;48.38;101747.19;5088380;27;99109;-76
2021/09/08 03:36:39;;;;;;;1999.90;999.90;;;;;;;12.25;48.42;101736.44;5070846;27;98047;-77
2021/09/08 03:39:07;;;;;;;1999.90;999.90;;;;;;;12.23;48.33;101744.41;5069757;27;98123;-76
2021/09/08 03:41:36;;;;;;;1999.90;999.90;;;;;;;12.22;48.34;101747.91;5064784;27;97384;-75
2021/09/08 03:44:04;;;;;;;1999.90;999.90;;;;;;;12.21;48.38;101745.22;5054106;27;100337;-75
2021/09/08 03:46:32;;;;;;;1999.90;999.90;;;;;;;12.19;48.35;101747.84;5089487;27;99164;-76
2021/09/08 03:49:01;;;;;;;1999.90;999.90;;;;;;;12.16;48.57;101743.28;5058337;27;97300;-75
2021/09/08 03:51:28;;;;;;;1999.90;999.90;;;;;;;12.15;48.39;101749.47;5055678;27;97636;-77
2021/09/08 03:53:58;;;;;;;1999.90;999.90;;;;;;;12.14;48.47;101742.31;5059575;27;99447;-76
2021/09/08 03:56:26;;;;;;;1999.90;999.90;;;;;;;12.08;48.81;101735.91;5057915;27;99478;-75
2021/09/08 03:58:55;;;;;;;1999.90;999.90;;;;;;;12.06;48.72;101737.63;5089376;27;98309;-76
2021/09/08 04:01:23;;;;;;;1999.90;999.90;;;;;;;12.01;48.72;101737.50;5087939;27;97434;-75
2021/09/08 04:03:51;;;;;;;1999.90;999.90;;;;;;;12.00;48.84;101733.00;5084419;27;97942;-75
2021/09/08 04:06:19;;;;;;;1999.90;999.90;;;;;;;12.00;48.95;101732.09;5066916;27;99289;-76
2021/09/08 04:08:48;;;;;;;1999.90;999.90;;;;;;;11.99;48.85;101733.88;5066333;27;97951;-77
2021/09/08 04:11:16;;;;;;;1999.90;999.90;;;;;;;11.97;48.72;101740.00;5088411;27;97789;-78
2021/09/08 04:13:43;;;;;;;1999.90;999.90;;;;;;;11.95;48.78;101731.97;5083469;27;98096;-77
2021/09/08 04:16:12;;;;;;;1999.90;999.90;;;;;;;11.94;48.70;101737.25;5090370;27;98937;-77
2021/09/08 04:18:40;;;;;;;1999.90;999.90;;;;;;;11.92;48.84;101738.97;5095643;27;97460;-78
2021/09/08 04:21:08;;;;;;;1999.90;999.90;;;;;;;11.90;48.97;101735.34;5052665;27;99306;-77
2021/09/08 04:23:36;;;;;;;1999.90;999.90;;;;;;;11.89;48.93;101741.56;5067282;27;99261;-78
2021/09/08 04:26:04;;;;;;;1999.90;999.90;;;;;;;11.89;48.83;101737.09;5079255;27;97802;-77
2021/09/08 04:28:31;;;;;;;1999.90;999.90;;;;;;;11.87;48.82;101738.81;5067818;27;96783;-78
2021/09/08 04:30:59;;;;;;;1999.90;999.90;;;;;;;11.87;49.07;101748.59;5063742;27;97026;-77
2021/09/08 04:33:28;;;;;;;1999.90;999.90;;;;;;;11.83;48.92;101741.34;5087450;27;97712;-78
2021/09/08 04:35:57;;;;;;;1999.90;999.90;;;;;;;11.83;49.10;101746.69;5085429;27;97884;-77
2021/09/08 04:38:27;;;;;;;1999.90;999.90;;;;;;;11.81;49.00;101746.66;5064368;27;97783;-76
2021/09/08 04:40:55;;;;;;;1999.90;999.90;;;;;;;11.86;49.04;101745.03;5051395;27;97942;-78
2021/09/08 04:43:23;;;;;;;1999.90;999.90;;;;;;;11.85;48.93;101748.53;5070127;27;100615;-76
2021/09/08 04:45:51;;;;;;;1999.90;999.90;;;;;;;11.80;49.14;101742.16;5069101;27;99774;-76
2021/09/08 04:48:19;;;;;;;1999.90;999.90;;;;;;;11.76;49.07;101750.91;5049523;27;98142;-75
2021/09/08 04:50:48;;;;;;;1999.90;999.90;;;;;;;11.73;49.03;101740.16;5066137;27;97556;-77
2021/09/08 04:53:16;;;;;;;1999.90;999.90;;;;;;;11.73;49.09;101740.16;5047685;27;99220;-80
2021/09/08 04:55:43;;;;;;;1999.90;999.90;;;;;;;11.72;49.16;101740.13;5083730;27;98371;-76
2021/09/08 04:58:11;;;;;;;1999.90;999.90;;;;;;;11.73;49.15;101745.50;5065763;27;97950;-77
2021/09/08 05:00:39;;;;;;;1999.90;999.90;;;;;;;11.72;49.10;101741.03;5064729;27;97966;-76
2021/09/08 05:03:07;;;;;;;1999.90;999.90;;;;;;;11.72;49.44;101734.78;5091453;27;98075;-75
2021/09/08 05:05:35;;;;;;;1999.90;999.90;;;;;;;11.73;49.09;101739.25;5050742;27;98040;-75
2021/09/08 05:08:04;;;;;;;1999.90;999.90;;;;;;;11.73;49.04;101737.50;5069834;27;98198;-76
2021/09/08 05:10:32;;;;;;;1999.90;999.90;;;;;;;11.74;49.09;101741.06;5050418;27;97843;-76
2021/09/08 05:13:00;;;;;;;1999.90;999.90;;;;;;;11.73;49.15;101739.25;5065713;27;100809;-77
2021/09/08 05:15:28;;;;;;;1999.90;999.90;;;;;;;11.72;49.19;101741.03;5065513;27;98237;-77
2021/09/08 05:17:56;;;;;;;1999.90;999.90;;;;;;;11.73;49.08;101741.91;5066249;27;97062;-77
2021/09/08 05:20:23;;;;;;;1999.90;999.90;;;;;;;11.73;49.03;101737.50;5063558;27;97987;-77
2021/09/08 05:22:51;;;;;;;1999.90;999.90;;;;;;;11.76;49.10;101737.56;5069733;27;98610;-75
2021/09/08 05:25:20;;;;;;;1999.90;999.90;;;;;;;11.77;49.19;101738.50;5050444;27;100461;-76
2021/09/08 05:27:48;;;;;;;1999.90;999.90;;;;;;;11.75;49.20;101732.19;5080470;27;97637;-77
2021/09/08 05:30:16;;;;;;;1999.90;999.90;;;;;;;11.77;48.87;101728.72;5081879;27;98678;-77
2021/09/08 05:32:44;;;;;;;1999.90;999.90;;;;;;;11.77;49.16;101728.72;5066005;27;100617;-76
2021/09/08 05:35:12;;;;;;;1999.90;999.90;;;;;;;11.79;49.09;101735.03;5072035;27;99322;-77
2021/09/08 05:37:40;;;;;;;1999.90;999.90;;;;;;;11.80;49.16;101744.81;5086555;27;97954;-76
2021/09/08 05:40:10;;;;;;;1999.90;999.90;;;;;;;11.79;49.20;101737.69;5088768;27;97596;-77
2021/09/08 05:42:39;;;;;;;1999.90;999.90;;;;;;;11.81;49.19;101733.31;5070484;27;99730;-77
2021/09/08 05:45:08;;;;;;;1999.90;999.90;;;;;;;11.82;49.03;101739.53;5088433;27;98947;-77
2021/09/08 05:47:37;;;;;;;1999.90;999.90;;;;;;;11.81;49.20;101735.97;5075788;27;97289;-77
2021/09/08 05:50:06;;;;;;;1999.90;999.90;;;;;;;11.84;49.05;101741.41;5073400;27;98076;-77
2021/09/08 05:52:34;;;;;;;1999.90;999.90;;;;;;;11.83;49.30;101742.28;5075134;27;100530;-79
2021/09/08 05:55:01;;;;;;;1999.90;999.90;;;;;;;11.83;49.23;101734.28;5072731;27;97830;-77
2021/09/08 05:57:29;;;;;;;1999.90;999.90;;;;;;;11.82;49.18;101739.53;5097992;27;96950;-77
2021/09/08 05:59:59;;;;;;;1999.90;999.90;;;;;;;11.80;49.30;101736.81;5060243;27;97869;-77
2021/09/08 06:02:26;;;;;;;1999.90;999.90;;;;;;;11.78;49.41;101734.97;5087484;27;98979;-76
2021/09/08 06:04:54;;;;;;;1999.90;999.90;;;;;;;11.72;49.59;101743.69;5088336;27;97270;-77
2021/09/08 06:07:22;;;;;;;1999.90;999.90;;;;;;;11.74;49.67;101744.63;5094638;27;97429;-77
2021/09/08 06:09:50;;;;;;;1999.90;999.90;;;;;;;11.73;49.79;101734.81;5072740;27;96981;-76
2021/09/08 06:12:17;;;;;;;1999.90;999.90;;;;;;;11.77;49.65;101734.06;5068713;27;98438;-77
2021/09/08 06:14:45;;;;;;;1999.90;999.90;;;;;;;11.81;49.68;101735.97;5054768;27;99392;-78
2021/09/08 06:17:15;;;;;;;1999.90;999.90;;;;;;;11.87;49.52;101729.94;5068054;27;97758;-77
2021/09/08 06:19:42;;;;;;;1999.90;999.90;;;;;;;11.93;49.33;101733.69;5056232;27;97984;-77
2021/09/08 06:22:10;;;;;;;1999.90;999.90;;;;;;;11.94;49.37;101724.81;5073071;27;98280;-77
2021/09/08 06:24:38;;;;;;;1999.90;999.90;;;;;;;11.98;49.32;101732.03;5073577;27;97316;-77
2021/09/08 06:27:06;;;;;;;1999.90;999.90;;;;;;;12.05;49.46;101727.81;5076180;27;97305;-77
2021/09/08 06:29:34;;;;;;;1999.90;999.90;;;;;;;12.10;49.18;101731.53;5073805;27;97083;-77
2021/09/08 06:32:02;;;;;;;1999.90;999.90;;;;;;;12.18;49.41;101724.69;5084228;27;97751;-77
2021/09/08 06:34:31;;;;;;;1999.90;999.90;;;;;;;12.24;49.04;101727.53;5091842;27;97605;-77
2021/09/08 06:37:00;;;;;;;1999.90;999.90;;;;;;;12.27;49.04;101729.38;5069633;27;97478;-77
2021/09/08 06:39:28;;;;;;;1999.90;999.90;;;;;;;12.30;49.04;101726.81;5070793;27;98117;-74
2021/09/08 06:41:55;;;;;;;1999.90;999.90;;;;;;;12.33;49.20;101721.56;5069248;27;99594;-78
2021/09/08 06:44:23;;;;;;;1999.90;999.90;;;;;;;12.39;48.98;101724.41;5076148;27;99246;-77
2021/09/08 06:46:51;;;;;;;1999.90;999.90;;;;;;;12.44;48.83;101717.41;5059724;27;97606;-84
2021/09/08 06:49:20;;;;;;;1999.90;999.90;;;;;;;12.49;48.87;101726.47;5072924;27;97235;-77
2021/09/08 06:51:49;;;;;;;1999.90;999.90;;;;;;;12.49;49.04;101716.69;5069514;27;98924;-76
2021/09/08 06:54:17;;;;;;;1999.90;999.90;;;;;;;12.50;48.93;101717.59;5066336;27;97574;-77
2021/09/08 06:56:45;;;;;;;1999.90;999.90;;;;;;;12.54;49.02;101716.81;5084306;27;97264;-77
2021/09/08 06:59:12;;;;;;;1999.90;999.90;;;;;;;12.55;49.14;101714.19;5084760;27;97560;-76
2021/09/08 07:01:40;;;;;;;1999.90;999.90;;;;;;;12.61;49.05;101711.69;5069688;27;98066;-76
2021/09/08 07:04:08;;;;;;;1999.90;999.90;;;;;;;12.67;49.01;101701.19;5087612;27;97427;-77
2021/09/08 07:06:36;;;;;;;1999.90;999.90;;;;;;;12.73;48.86;101703.13;5071944;27;97500;-77
2021/09/08 07:09:05;;;;;;;1999.90;999.90;;;;;;;12.79;48.90;101695.25;5092579;27;97860;-77
2021/09/08 07:11:33;;;;;;;1999.90;999.90;;;;;;;12.83;48.79;101692.72;5072796;27;97689;-78
2021/09/08 07:14:01;;;;;;;1999.90;999.90;;;;;;;12.91;48.75;101698.28;5070691;27;97791;-77
2021/09/08 07:16:29;;;;;;;1999.90;999.90;;;;;;;12.97;48.73;101699.31;5074032;27;97410;-77
2021/09/08 07:18:57;;;;;;;1999.90;999.90;;;;;;;13.04;48.53;101692.38;5077021;27;96960;-78
2021/09/08 07:21:25;;;;;;;1999.90;999.90;;;;;;;13.08;48.76;101699.63;5072482;27;98398;-77
2021/09/08 07:23:52;;;;;;;1999.90;999.90;;;;;;;13.12;48.55;101693.50;5073972;27;101025;-77
2021/09/08 07:26:33;;;;;;;1999.90;999.90;;;;;;;13.18;48.52;101693.66;5052337;27;97689;-75
2021/09/08 07:29:01;;;;;;;1999.90;999.90;;;;;;;13.23;48.40;101689.31;5075446;27;97739;-77
2021/09/08 07:31:29;;;;;;;1999.90;999.90;;;;;;;13.30;48.48;101699.28;5087905;27;98891;-76
2021/09/08 07:33:58;;;;;;;1999.90;999.90;;;;;;;13.33;48.48;101699.34;5071492;27;98187;-77
2021/09/08 07:36:26;;;;;;;1999.90;999.90;;;;;;;13.38;48.37;101697.72;5085453;27;96970;-76
2021/09/08 07:38:54;;;;;;;1999.90;999.90;;;;;;;13.43;48.00;101696.06;5092118;27;97596;-77
2021/09/08 07:41:23;;;;;;;1999.90;999.90;;;;;;;13.49;48.23;101687.28;5073859;27;97855;-77
2021/09/08 07:43:52;;;;;;;1999.90;999.90;;;;;;;13.54;48.16;101697.22;5068075;27;97692;-77
2021/09/08 07:46:20;;;;;;;1999.90;999.90;;;;;;;13.60;48.07;101691.09;5092678;27;97929;-76
2021/09/08 07:48:48;;;;;;;1999.90;999.90;;;;;;;13.65;48.02;101693.03;5070106;27;97592;-76
2021/09/08 07:51:16;;;;;;;1999.90;999.90;;;;;;;13.72;48.02;101694.97;5088374;27;96934;-76
2021/09/08 07:53:43;;;;;;;1999.90;999.90;;;;;;;13.77;47.97;101692.41;5075566;27;100430;-76
2021/09/08 07:56:11;;;;;;;1999.90;999.90;;;;;;;13.80;47.86;101690.75;5051778;27;97298;-77
2021/09/08 07:58:39;;;;;;;1999.90;999.90;;;;;;;13.85;48.00;101693.50;5071043;27;97320;-77
2021/09/08 08:01:08;;;;;;;1999.90;999.90;;;;;;;13.92;47.63;101691.00;5071446;27;99375;-77
2021/09/08 08:03:37;;;;;;;1999.90;999.90;;;;;;;13.97;47.75;101688.41;5074964;27;98335;-77
2021/09/08 08:06:05;;;;;;;1999.90;999.90;;;;;;;14.02;47.78;101687.63;5089668;27;97323;-77
2021/09/08 08:08:33;;;;;;;1999.90;999.90;;;;;;;14.08;47.73;101685.09;5086185;27;97399;-77
2021/09/08 08:11:01;;;;;;;1999.90;999.90;;;;;;;14.13;47.78;101694.13;5067924;27;100754;-77
2021/09/08 08:13:29;;;;;;;1999.90;999.90;;;;;;;14.19;47.70;101690.66;5093782;27;98914;-77
2021/09/08 08:15:56;;;;;;;1999.90;999.90;;;;;;;14.24;47.30;101680.97;5074005;27;96841;-77
2021/09/08 08:18:26;;;;;;;1999.90;999.90;;;;;;;14.29;47.67;101689.09;5070781;27;97735;-77
2021/09/08 08:20:55;;;;;;;1999.90;999.90;;;;;;;14.33;47.57;101678.50;5069782;27;100465;-77
2021/09/08 08:23:23;;;;;;;1999.90;999.90;;;;;;;14.39;47.50;101672.34;5052502;27;98945;-77
2021/09/08 08:25:51;;;;;;;1999.90;999.90;;;;;;;14.44;47.54;101671.56;5086196;27;97868;-77
2021/09/08 08:28:18;;;;;;;1999.90;999.90;;;;;;;14.50;47.51;101676.13;5067159;27;98061;-77
2021/09/08 08:30:46;;;;;;;1999.90;999.90;;;;;;;14.56;47.28;101676.28;5066413;27;100588;-77
2021/09/08 08:33:14;;;;;;;1999.90;999.90;;;;;;;14.61;47.36;101669.25;5067883;27;101235;-77
2021/09/08 08:35:43;;;;;;;1999.90;999.90;;;;;;;14.66;47.31;101667.56;5087284;27;96904;-78
2021/09/08 08:38:11;;;;;;;1999.90;999.90;;;;;;;14.70;47.38;101653.34;5068507;27;98152;-77
2021/09/08 08:40:39;;;;;;;1999.90;999.90;;;;;;;14.72;47.40;101654.25;5085987;27;98694;-77
2021/09/08 08:43:07;;;;;;;1999.90;999.90;;;;;;;14.76;47.25;101653.44;5083991;27;100317;-77
2021/09/08 08:45:35;;;;;;;1999.90;999.90;;;;;;;14.81;47.21;101668.72;5073898;27;97484;-76
2021/09/08 08:48:03;;;;;;;1999.90;999.90;;;;;;;14.90;47.32;101665.31;5069541;27;97510;-77
2021/09/08 08:50:32;;;;;;;1999.90;999.90;;;;;;;14.95;46.96;101659.16;5052753;27;99595;-77
2021/09/08 08:53:01;;;;;;;1999.90;999.90;;;;;;;15.00;46.85;101657.44;5070111;27;99376;-77
2021/09/08 08:55:29;;;;;;;1999.90;999.90;;;;;;;15.05;46.78;101657.50;5071254;27;97073;-77
2021/09/08 08:57:58;;;;;;;1999.90;999.90;;;;;;;15.11;47.18;101660.31;5065760;27;98247;-76
2021/09/08 09:00:26;;;;;;;1999.90;999.90;;;;;;;15.16;46.99;101655.91;5069664;27;99304;-77
2021/09/08 09:02:54;;;;;;;1999.90;999.90;;;;;;;15.22;46.83;101657.78;5071594;27;100409;-77
2021/09/08 09:05:32;;;;;;;1999.90;999.90;;;;;;;15.26;46.91;101657.88;5056096;27;97595;-77
2021/09/08 09:08:02;;;;;;;1999.90;999.90;;;;;;;15.33;46.90;101658.91;5075160;27;97530;-77
2021/09/08 09:10:30;;;;;;;1999.90;999.90;;;;;;;15.38;46.48;101658.09;5072643;27;99266;-77
2021/09/08 09:12:58;;;;;;;1999.90;999.90;;;;;;;15.45;46.76;101648.38;5069229;27;100268;-77
2021/09/08 09:15:25;;;;;;;1999.90;999.90;;;;;;;15.51;46.36;101644.00;5054436;27;97819;-77
2021/09/08 09:17:54;;;;;;;1999.90;999.90;;;;;;;15.58;46.53;101644.97;5092565;27;97301;-77
2021/09/08 09:20:24;;;;;;;1999.90;999.90;;;;;;;15.63;46.53;101652.19;5091089;27;97664;-77
2021/09/08 09:22:53;;;;;;;1999.90;999.90;;;;;;;15.68;46.46;101637.09;5072972;27;99101;-77
2021/09/08 09:25:25;;;;;;;1999.90;999.90;;;;;;;15.73;46.36;101643.41;5092492;27;96844;-77
2021/09/08 09:27:55;;;;;;;1999.90;999.90;;;;;;;15.78;46.46;101636.31;5084873;27;97603;-78
2021/09/08 09:30:26;;;;;;;1999.90;999.90;;;;;;;15.85;46.17;101635.50;5092134;27;98102;-76
2021/09/08 09:32:55;;;;;;;1999.90;999.90;;;;;;;15.91;46.06;101632.91;5071455;27;101543;-76
2021/09/08 09:35:24;;;;;;;1999.90;999.90;;;;;;;15.97;45.74;101627.63;5091617;27;97717;-76
2021/09/08 09:37:53;;;;;;;1999.90;999.90;;;;;;;16.03;45.94;101633.09;5071248;27;97653;-78
2021/09/08 09:40:26;;;;;;;1999.90;999.90;;;;;;;16.08;45.92;101623.34;5052965;27;99338;-76
2021/09/08 09:42:54;;;;;;;1999.90;999.90;;;;;;;16.14;45.62;101621.59;5089300;27;98068;-76
2021/09/08 09:45:22;;;;;;;1999.90;999.90;;;;;;;16.18;45.67;101624.31;5075556;27;96885;-76
2021/09/08 09:47:50;;;;;;;1999.90;999.90;;;;;;;16.24;45.45;101619.03;5072475;27;97278;-77
2021/09/08 09:50:19;;;;;;;1999.90;999.90;;;;;;;16.31;45.39;101615.50;5056568;27;99259;-75
2021/09/08 09:52:48;;;;;;;1999.90;999.90;;;;;;;16.38;45.32;101605.75;5074116;27;100318;-76
2021/09/08 09:55:17;;;;;;;1999.90;999.90;;;;;;;16.44;45.53;101603.09;5091399;27;97842;-76
2021/09/08 09:57:46;;;;;;;1999.90;999.90;;;;;;;16.52;45.10;101596.03;5075956;27;97437;-76
2021/09/08 10:00:16;;;;;;;1999.90;999.90;;;;;;;16.59;44.85;101603.25;5070375;27;97746;-76
2021/09/08 10:02:45;;;;;;;1999.90;999.90;;;;;;;16.64;45.13;101601.50;5069348;27;100476;-76
2021/09/08 10:05:14;;;;;;;1999.90;999.90;;;;;;;16.69;44.88;101597.97;5073543;27;97857;-76
2021/09/08 10:07:42;;;;;;;1999.90;999.90;;;;;;;16.74;44.59;101593.56;5065490;27;97803;-76
2021/09/08 10:10:13;;;;;;;1999.90;999.90;;;;;;;16.77;44.34;101590.94;5053812;27;99359;-77
2021/09/08 10:12:46;;;;;;;1999.90;999.90;;;;;;;16.85;44.61;101586.50;5058583;27;99845;-77
2021/09/08 10:15:16;;;;;;;1999.90;999.90;;;;;;;16.92;44.37;101579.41;5089274;27;97569;-76
2021/09/08 10:17:45;;;;;;;1999.90;999.90;;;;;;;16.97;44.42;101577.66;5072258;27;97994;-76
2021/09/08 10:20:17;;;;;;;1999.90;999.90;;;;;;;17.01;44.21;101571.41;5071553;27;99775;-76
2021/09/08 10:22:45;;;;;;;1999.90;999.90;;;;;;;17.07;44.25;101571.47;5089402;27;97872;-76
2021/09/08 10:25:15;;;;;;;1999.90;999.90;;;;;;;17.13;43.94;101574.16;5092597;27;97242;-78
2021/09/08 10:27:44;;;;;;;1999.90;999.90;;;;;;;17.19;43.60;101563.47;5070271;27;96826;-77
2021/09/08 10:30:33;;;;;;;1999.90;999.90;;;;;;;17.25;43.78;101574.28;5072764;27;98162;-77
2021/09/08 10:33:04;;;;;;;1999.90;999.90;;;;;;;17.33;43.52;101558.19;5072394;27;100322;-76
2021/09/08 10:35:38;;;;;;;1999.90;999.90;;;;;;;17.38;43.64;101559.13;5069225;27;97161;-76
2021/09/08 10:38:12;;;;;;;1999.90;999.90;;;;;;;17.46;43.52;101557.34;5066130;27;98054;-76
2021/09/08 10:40:39;;;;;;;1999.90;999.90;;;;;;;17.51;43.38;101553.78;5056281;27;99380;-76
2021/09/08 10:43:07;;;;;;;1999.90;999.90;;;;;;;17.55;43.37;101550.25;5068348;27;98079;-76
2021/09/08 10:45:49;;;;;;;1999.90;999.90;;;;;;;17.60;43.08;101545.75;5056586;27;96855;-75
2021/09/08 10:48:39;;;;;;;1999.90;999.90;;;;;;;17.66;42.84;101547.59;5065875;27;97969;-77
2021/09/08 10:51:08;;;;;;;1999.90;999.90;;;;;;;17.70;43.02;101534.16;5085680;27;98025;-77
2021/09/08 10:53:38;;;;;;;1999.90;999.90;;;;;;;17.78;42.98;101539.56;5073380;27;99552;-76